Hertfordshire — ZDJS5 — position and weather

sailwx.info

Track history (hours):
 
Tides and Currents Weather Stations Pressure Air Temp Water Temp Dewpoint Dewpoint Depression Visibility Wind Speed Wind Dir Waves Ship Positions

Hertfordshire

Last reported at 2014-Jul-24 18:32 UTC. Time now 2014-Jul-24 19:18 UTC.
Position N 50°50' W 000°15'.

Length 83 m; draft 4.5 m.

Type: Cargo ship. MMSI: 236563000.

Date/timePositionNaut miles runAvg speedWind from/ knotsBaromVisibWave heightAir tempDewpointWater temp
2014-Jul-24 18:32N 50°50' W 000°15'0 0.0
2014-Jul-24 17:32N 50°50' W 000°15'0 0.0
2014-Jul-24 16:32N 50°50' W 000°15'0 0.0
2014-Jul-24 15:29N 50°50' W 000°15'0 0.0
2014-Jul-24 14:32N 50°50' W 000°15'0 0.0
2014-Jul-24 13:32N 50°50' W 000°15'0 0.0
2014-Jul-24 12:32N 50°50' W 000°15'0 0.0
2014-Jul-24 11:29N 50°50' W 000°15'0 0.0
2014-Jul-24 10:32N 50°50' W 000°15'1 0.6
2014-Jul-24 09:33N 50°49' W 000°15'8 8.5
2014-Jul-24 08:33N 50°43' W 000°25'1110.6
2014-Jul-24 07:33N 50°38' W 000°39'1711.9
2014-Jul-24 06:07N 50°34' W 001°05'178 6.2
2014-Jul-23 01:17N 50°27' W 005°46'810.7
2014-Jul-23 00:33N 50°32' W 005°36'1110.7
2014-Jul-22 23:33N 50°39' W 005°23'8412.0
2014-Jul-22 16:32N 51°19' W 003°26'1111.7
2014-Jul-22 15:33N 51°22' W 003°08'10 9.8
2014-Jul-22 14:33N 51°28' W 002°56'9 8.6
2014-Jul-22 13:33N 51°30' W 002°43'0 0.5
2014-Jul-22 12:33N 51°31' W 002°42'0 0.0
2014-Jul-22 11:33N 51°31' W 002°42'0 0.0
2014-Jul-22 10:33N 51°31' W 002°42'0 0.0
2014-Jul-22 09:33N 51°31' W 002°42'0 0.0
2014-Jul-22 08:33N 51°31' W 002°42'0 0.0
2014-Jul-22 07:33N 51°31' W 002°42'0 0.0
2014-Jul-22 06:33N 51°31' W 002°42'0 0.0
2014-Jul-22 05:33N 51°31' W 002°42'0 0.0
2014-Jul-22 04:33N 51°31' W 002°42'0 0.0
2014-Jul-22 03:33N 51°31' W 002°42'0 0.0
2014-Jul-22 02:32N 51°31' W 002°42'0 0.0
2014-Jul-22 01:32N 51°31' W 002°42'0 0.0
2014-Jul-22 00:33N 51°31' W 002°42'0 0.0
2014-Jul-21 22:33N 51°31' W 002°42'0 0.0
2014-Jul-21 21:33N 51°31' W 002°42'0 0.0
2014-Jul-21 20:33N 51°31' W 002°42'0 0.0
2014-Jul-21 20:18N 51°31' W 002°42'0 0.0
2014-Jul-21 19:33N 51°31' W 002°42'0 0.0
2014-Jul-21 18:33N 51°31' W 002°42'0 0.0
2014-Jul-21 17:33N 51°31' W 002°42'0 0.0
2014-Jul-21 16:33N 51°31' W 002°42'0 0.0
2014-Jul-21 15:33N 51°31' W 002°42'0 0.0
2014-Jul-21 14:33N 51°31' W 002°42'0 0.0
2014-Jul-21 13:33N 51°31' W 002°42'0 0.0
2014-Jul-21 12:33N 51°31' W 002°42'0 0.0
2014-Jul-21 11:33N 51°31' W 002°42'0 0.0
2014-Jul-21 10:33N 51°31' W 002°42'0 0.0
2014-Jul-21 09:33N 51°31' W 002°42'0 0.0
2014-Jul-21 08:33N 51°31' W 002°42'0 0.0
2014-Jul-21 07:33N 51°31' W 002°42'0 0.0
2014-Jul-21 06:33N 51°31' W 002°42'0 0.0
2014-Jul-21 05:33N 51°31' W 002°42'0 0.0
2014-Jul-21 04:33N 51°31' W 002°42'0 0.0
2014-Jul-21 03:33N 51°31' W 002°42'0 0.0
2014-Jul-21 02:33N 51°31' W 002°42'0 0.0
2014-Jul-21 01:33N 51°31' W 002°42'0 0.0
2014-Jul-21 00:33N 51°31' W 002°42'0 0.0
2014-Jul-20 23:33N 51°31' W 002°42'0 0.0
2014-Jul-20 22:33N 51°31' W 002°42'0 0.0
2014-Jul-20 21:33N 51°31' W 002°42'0 0.0
2014-Jul-20 20:33N 51°31' W 002°42'0 0.0
2014-Jul-20 19:33N 51°31' W 002°42'0 0.0
2014-Jul-20 18:33N 51°31' W 002°42'0 0.0
2014-Jul-20 17:33N 51°31' W 002°42'0 0.0
2014-Jul-20 16:33N 51°31' W 002°42'0 0.0
2014-Jul-20 15:33N 51°31' W 002°42'0 0.0
2014-Jul-20 14:33N 51°31' W 002°42'0 0.0
2014-Jul-20 13:33N 51°31' W 002°42'0 0.0
2014-Jul-20 12:33N 51°31' W 002°42'0 0.0
2014-Jul-20 11:33N 51°31' W 002°42'0 0.0
2014-Jul-20 10:33N 51°31' W 002°42'0 0.0
2014-Jul-20 09:33N 51°31' W 002°42'0 0.0
2014-Jul-20 08:33N 51°31' W 002°42'0 0.0
2014-Jul-20 07:33N 51°31' W 002°42'0 0.0
2014-Jul-20 06:33N 51°31' W 002°42'0 0.0
2014-Jul-20 05:33N 51°31' W 002°42'0 0.0
2014-Jul-20 04:33N 51°31' W 002°42'0 0.0
2014-Jul-20 03:33N 51°31' W 002°42'0 0.0
2014-Jul-20 02:33N 51°31' W 002°42'0 0.0
2014-Jul-20 01:33N 51°31' W 002°42'0 0.0
2014-Jul-20 00:33N 51°31' W 002°42'0 0.0
2014-Jul-19 23:33N 51°31' W 002°42'0 0.0
2014-Jul-19 22:33N 51°31' W 002°42'0 0.0
2014-Jul-19 21:33N 51°31' W 002°42'0 0.0
2014-Jul-19 20:33N 51°31' W 002°42'0 0.0
2014-Jul-19 19:33N 51°31' W 002°42'0 0.0
2014-Jul-19 18:33N 51°31' W 002°42'0 0.0
2014-Jul-19 17:33N 51°31' W 002°42'0 0.0
2014-Jul-19 16:33N 51°31' W 002°42'0 0.0
2014-Jul-19 15:33N 51°31' W 002°42'0 0.0
2014-Jul-19 14:33N 51°31' W 002°42'0 0.0
2014-Jul-19 13:33N 51°31' W 002°42'0 0.0
2014-Jul-19 12:33N 51°31' W 002°42'0 0.0
2014-Jul-19 11:33N 51°31' W 002°42'0 0.0
2014-Jul-19 10:33N 51°31' W 002°42'0 0.0
2014-Jul-19 09:33N 51°31' W 002°42'0 0.0
2014-Jul-19 08:33N 51°31' W 002°42'0 0.0
2014-Jul-19 07:33N 51°31' W 002°42'0 0.0
2014-Jul-19 06:33N 51°31' W 002°42'0 0.0
2014-Jul-19 05:33N 51°31' W 002°42'0 0.0
2014-Jul-19 04:33N 51°31' W 002°42'0 0.0
2014-Jul-19 03:33N 51°31' W 002°42'0 0.0
2014-Jul-19 02:33N 51°31' W 002°42'0 0.0
2014-Jul-19 01:33N 51°31' W 002°42'0 0.0
2014-Jul-19 00:33N 51°31' W 002°42'0 0.0
2014-Jul-18 23:33N 51°31' W 002°42'0 0.0
2014-Jul-18 22:33N 51°31' W 002°42'0 0.0
2014-Jul-18 21:33N 51°31' W 002°42'0 0.0
2014-Jul-18 20:33N 51°31' W 002°42'0 0.0
2014-Jul-18 19:33N 51°31' W 002°42'0 0.0
2014-Jul-18 18:33N 51°31' W 002°42'0 0.0
2014-Jul-18 17:33N 51°31' W 002°42'0 0.0
2014-Jul-18 16:33N 51°31' W 002°42'0 0.0
2014-Jul-18 15:33N 51°31' W 002°42'0 0.0
2014-Jul-18 14:33N 51°31' W 002°42'0 0.0
2014-Jul-18 13:33N 51°31' W 002°42'0 0.0
2014-Jul-18 12:33N 51°31' W 002°42'0 0.0
2014-Jul-18 11:33N 51°31' W 002°42'0 0.0
2014-Jul-18 10:33N 51°31' W 002°42'0 0.5
2014-Jul-18 09:33N 51°30' W 002°43'5 5.2
2014-Jul-18 08:33N 51°29' W 002°51'1413.5
2014-Jul-18 07:33N 51°22' W 003°10'82 8.0
2014-Jul-17 21:12N 50°39' W 005°02'711.4
2014-Jul-17 20:33N 50°35' W 005°11'1111.4
2014-Jul-17 19:33N 50°29' W 005°26'99 7.0
2014-Jul-17 05:31N 50°14' W 002°53'2613.1
2014-Jul-17 03:32N 50°19' W 002°13'1111.7
2014-Jul-17 02:33N 50°21' W 001°55'1110.0
2014-Jul-17 01:30N 50°23' W 001°39'8 8.4
2014-Jul-17 00:31N 50°25' W 001°26'7 7.2
2014-Jul-16 23:34N 50°26' W 001°16'7 6.5
2014-Jul-16 22:33N 50°27' W 001°06'7 6.9
2014-Jul-16 21:33N 50°28' W 000°55'9 8.7
2014-Jul-16 20:31N 50°29' W 000°41'2411.6
2014-Jul-16 18:29N 50°33' W 000°04'1111.9
2014-Jul-16 17:33N 50°35' E 000°13'1211.7
2014-Jul-16 16:33N 50°38' E 000°31'1110.7
2014-Jul-16 15:33N 50°44' E 000°45'10 9.5
2014-Jul-16 14:33N 50°49' E 000°58'9 8.9
2014-Jul-16 13:33N 50°55' E 001°09'10 9.5
2014-Jul-16 12:30N 51°01' E 001°21'1212.4
2014-Jul-16 11:34N 51°09' E 001°35'1413.6
2014-Jul-16 10:33N 51°18' E 001°51'1110.3
2014-Jul-16 09:30N 51°23' E 002°06'1011.0
2014-Jul-16 08:33N 51°22' E 002°23'1211.4
2014-Jul-16 07:33N 51°23' E 002°41'1010.5
2014-Jul-16 06:33N 51°22' E 002°58'1010.3
2014-Jul-16 05:33N 51°23' E 003°14'1010.1
2014-Jul-16 04:33N 51°25' E 003°30'9 8.6
2014-Jul-16 03:33N 51°23' E 003°43'5 5.0
2014-Jul-16 02:33N 51°20' E 003°49'3 3.2
2014-Jul-16 01:28N 51°16' E 003°51'0 0.0
2014-Jul-16 00:32N 51°16' E 003°51'0 0.0
2014-Jul-15 23:30N 51°16' E 003°51'0 0.0
2014-Jul-15 22:18N 51°16' E 003°51'0 0.0
2014-Jul-15 21:24N 51°16' E 003°51'0 0.0
2014-Jul-15 20:30N 51°16' E 003°51'0 0.0
2014-Jul-15 19:18N 51°16' E 003°51'0 0.0
2014-Jul-15 18:33N 51°16' E 003°51'0 0.0
2014-Jul-15 17:27N 51°16' E 003°51'0 0.0
2014-Jul-15 16:24N 51°16' E 003°51'0 0.0
2014-Jul-15 15:28N 51°16' E 003°51'0 0.0
2014-Jul-15 14:31N 51°16' E 003°51'0 0.0
2014-Jul-15 13:25N 51°16' E 003°51'0 0.0
2014-Jul-15 12:31N 51°16' E 003°51'0 0.0
2014-Jul-15 11:31N 51°16' E 003°51'0 0.0
2014-Jul-15 10:31N 51°16' E 003°51'3 2.7
2014-Jul-15 09:34N 51°19' E 003°50'0 0.4
2014-Jul-15 08:32N 51°19' E 003°49'0 0.0
2014-Jul-15 07:32N 51°19' E 003°49'0 0.0
2014-Jul-15 06:32N 51°19' E 003°49'0 0.0
2014-Jul-15 05:32N 51°19' E 003°49'0 0.0
2014-Jul-15 04:32N 51°19' E 003°49'0 0.0
2014-Jul-15 03:29N 51°19' E 003°49'0 0.0
2014-Jul-15 02:29N 51°19' E 003°49'0 0.0
2014-Jul-15 01:32N 51°19' E 003°49'0 0.0
2014-Jul-15 00:32N 51°19' E 003°49'0 0.0
2014-Jul-14 23:32N 51°19' E 003°49'0 0.0
2014-Jul-14 22:32N 51°19' E 003°49'0 0.0
2014-Jul-14 21:32N 51°19' E 003°49'0 0.0
2014-Jul-14 20:29N 51°19' E 003°49'0 0.0
2014-Jul-14 19:32N 51°19' E 003°49'0 0.0
2014-Jul-14 18:32N 51°19' E 003°49'  
Track history (hours):
 
Tides and Currents Weather Stations Pressure Air Temp Water Temp Dewpoint Dewpoint Depression Visibility Wind Speed Wind Dir Waves Ship Positions

Hertfordshire

Last reported at 2014-Jul-24 18:32 UTC. Time now 2014-Jul-24 19:18 UTC.
Position N 50°50' W 000°15'.

Length 83 m; draft 4.5 m.

Type: Cargo ship. MMSI: 236563000.

Date/timePositionNaut miles runAvg speedWind from/ knotsBaromVisibWave heightAir tempDewpointWater temp
2014-Jul-24 18:32N 50°50' W 000°15'0 0.0
2014-Jul-24 17:32N 50°50' W 000°15'0 0.0
2014-Jul-24 16:32N 50°50' W 000°15'0 0.0
2014-Jul-24 15:29N 50°50' W 000°15'0 0.0
2014-Jul-24 14:32N 50°50' W 000°15'0 0.0
2014-Jul-24 13:32N 50°50' W 000°15'0 0.0
2014-Jul-24 12:32N 50°50' W 000°15'0 0.0
2014-Jul-24 11:29N 50°50' W 000°15'0 0.0
2014-Jul-24 10:32N 50°50' W 000°15'1 0.6
2014-Jul-24 09:33N 50°49' W 000°15'8 8.5
2014-Jul-24 08:33N 50°43' W 000°25'1110.6
2014-Jul-24 07:33N 50°38' W 000°39'1711.9
2014-Jul-24 06:07N 50°34' W 001°05'178 6.2
2014-Jul-23 01:17N 50°27' W 005°46'810.7
2014-Jul-23 00:33N 50°32' W 005°36'1110.7
2014-Jul-22 23:33N 50°39' W 005°23'8412.0
2014-Jul-22 16:32N 51°19' W 003°26'1111.7
2014-Jul-22 15:33N 51°22' W 003°08'10 9.8
2014-Jul-22 14:33N 51°28' W 002°56'9 8.6
2014-Jul-22 13:33N 51°30' W 002°43'0 0.5
2014-Jul-22 12:33N 51°31' W 002°42'0 0.0
2014-Jul-22 11:33N 51°31' W 002°42'0 0.0
2014-Jul-22 10:33N 51°31' W 002°42'0 0.0
2014-Jul-22 09:33N 51°31' W 002°42'0 0.0
2014-Jul-22 08:33N 51°31' W 002°42'0 0.0
2014-Jul-22 07:33N 51°31' W 002°42'0 0.0
2014-Jul-22 06:33N 51°31' W 002°42'0 0.0
2014-Jul-22 05:33N 51°31' W 002°42'0 0.0
2014-Jul-22 04:33N 51°31' W 002°42'0 0.0
2014-Jul-22 03:33N 51°31' W 002°42'0 0.0
2014-Jul-22 02:32N 51°31' W 002°42'0 0.0
2014-Jul-22 01:32N 51°31' W 002°42'0 0.0
2014-Jul-22 00:33N 51°31' W 002°42'0 0.0
2014-Jul-21 22:33N 51°31' W 002°42'0 0.0
2014-Jul-21 21:33N 51°31' W 002°42'0 0.0
2014-Jul-21 20:33N 51°31' W 002°42'0 0.0
2014-Jul-21 20:18N 51°31' W 002°42'0 0.0
2014-Jul-21 19:33N 51°31' W 002°42'0 0.0
2014-Jul-21 18:33N 51°31' W 002°42'0 0.0
2014-Jul-21 17:33N 51°31' W 002°42'0 0.0
2014-Jul-21 16:33N 51°31' W 002°42'0 0.0
2014-Jul-21 15:33N 51°31' W 002°42'0 0.0
2014-Jul-21 14:33N 51°31' W 002°42'0 0.0
2014-Jul-21 13:33N 51°31' W 002°42'0 0.0
2014-Jul-21 12:33N 51°31' W 002°42'0 0.0
2014-Jul-21 11:33N 51°31' W 002°42'0 0.0
2014-Jul-21 10:33N 51°31' W 002°42'0 0.0
2014-Jul-21 09:33N 51°31' W 002°42'0 0.0
2014-Jul-21 08:33N 51°31' W 002°42'0 0.0
2014-Jul-21 07:33N 51°31' W 002°42'0 0.0
2014-Jul-21 06:33N 51°31' W 002°42'0 0.0
2014-Jul-21 05:33N 51°31' W 002°42'0 0.0
2014-Jul-21 04:33N 51°31' W 002°42'0 0.0
2014-Jul-21 03:33N 51°31' W 002°42'0 0.0
2014-Jul-21 02:33N 51°31' W 002°42'0 0.0
2014-Jul-21 01:33N 51°31' W 002°42'0 0.0
2014-Jul-21 00:33N 51°31' W 002°42'0 0.0
2014-Jul-20 23:33N 51°31' W 002°42'0 0.0
2014-Jul-20 22:33N 51°31' W 002°42'0 0.0
2014-Jul-20 21:33N 51°31' W 002°42'0 0.0
2014-Jul-20 20:33N 51°31' W 002°42'0 0.0
2014-Jul-20 19:33N 51°31' W 002°42'0 0.0
2014-Jul-20 18:33N 51°31' W 002°42'0 0.0
2014-Jul-20 17:33N 51°31' W 002°42'0 0.0
2014-Jul-20 16:33N 51°31' W 002°42'0 0.0
2014-Jul-20 15:33N 51°31' W 002°42'0 0.0
2014-Jul-20 14:33N 51°31' W 002°42'0 0.0
2014-Jul-20 13:33N 51°31' W 002°42'0 0.0
2014-Jul-20 12:33N 51°31' W 002°42'0 0.0
2014-Jul-20 11:33N 51°31' W 002°42'0 0.0
2014-Jul-20 10:33N 51°31' W 002°42'0 0.0
2014-Jul-20 09:33N 51°31' W 002°42'0 0.0
2014-Jul-20 08:33N 51°31' W 002°42'0 0.0
2014-Jul-20 07:33N 51°31' W 002°42'0 0.0
2014-Jul-20 06:33N 51°31' W 002°42'0 0.0
2014-Jul-20 05:33N 51°31' W 002°42'0 0.0
2014-Jul-20 04:33N 51°31' W 002°42'0 0.0
2014-Jul-20 03:33N 51°31' W 002°42'0 0.0
2014-Jul-20 02:33N 51°31' W 002°42'0 0.0
2014-Jul-20 01:33N 51°31' W 002°42'0 0.0
2014-Jul-20 00:33N 51°31' W 002°42'0 0.0
2014-Jul-19 23:33N 51°31' W 002°42'0 0.0
2014-Jul-19 22:33N 51°31' W 002°42'0 0.0
2014-Jul-19 21:33N 51°31' W 002°42'0 0.0
2014-Jul-19 20:33N 51°31' W 002°42'0 0.0
2014-Jul-19 19:33N 51°31' W 002°42'0 0.0
2014-Jul-19 18:33N 51°31' W 002°42'0 0.0
2014-Jul-19 17:33N 51°31' W 002°42'0 0.0
2014-Jul-19 16:33N 51°31' W 002°42'0 0.0
2014-Jul-19 15:33N 51°31' W 002°42'0 0.0
2014-Jul-19 14:33N 51°31' W 002°42'0 0.0
2014-Jul-19 13:33N 51°31' W 002°42'0 0.0
2014-Jul-19 12:33N 51°31' W 002°42'0 0.0
2014-Jul-19 11:33N 51°31' W 002°42'0 0.0
2014-Jul-19 10:33N 51°31' W 002°42'0 0.0
2014-Jul-19 09:33N 51°31' W 002°42'0 0.0
2014-Jul-19 08:33N 51°31' W 002°42'0 0.0
2014-Jul-19 07:33N 51°31' W 002°42'0 0.0
2014-Jul-19 06:33N 51°31' W 002°42'0 0.0
2014-Jul-19 05:33N 51°31' W 002°42'0 0.0
2014-Jul-19 04:33N 51°31' W 002°42'0 0.0
2014-Jul-19 03:33N 51°31' W 002°42'0 0.0
2014-Jul-19 02:33N 51°31' W 002°42'0 0.0
2014-Jul-19 01:33N 51°31' W 002°42'0 0.0
2014-Jul-19 00:33N 51°31' W 002°42'0 0.0
2014-Jul-18 23:33N 51°31' W 002°42'0 0.0
2014-Jul-18 22:33N 51°31' W 002°42'0 0.0
2014-Jul-18 21:33N 51°31' W 002°42'0 0.0
2014-Jul-18 20:33N 51°31' W 002°42'0 0.0
2014-Jul-18 19:33N 51°31' W 002°42'0 0.0
2014-Jul-18 18:33N 51°31' W 002°42'0 0.0
2014-Jul-18 17:33N 51°31' W 002°42'0 0.0
2014-Jul-18 16:33N 51°31' W 002°42'0 0.0
2014-Jul-18 15:33N 51°31' W 002°42'0 0.0
2014-Jul-18 14:33N 51°31' W 002°42'0 0.0
2014-Jul-18 13:33N 51°31' W 002°42'0 0.0
2014-Jul-18 12:33N 51°31' W 002°42'0 0.0
2014-Jul-18 11:33N 51°31' W 002°42'0 0.0
2014-Jul-18 10:33N 51°31' W 002°42'0 0.5
2014-Jul-18 09:33N 51°30' W 002°43'5 5.2
2014-Jul-18 08:33N 51°29' W 002°51'1413.5
2014-Jul-18 07:33N 51°22' W 003°10'82 8.0
2014-Jul-17 21:12N 50°39' W 005°02'711.4
2014-Jul-17 20:33N 50°35' W 005°11'1111.4
2014-Jul-17 19:33N 50°29' W 005°26'99 7.0
2014-Jul-17 05:31N 50°14' W 002°53'2613.1
2014-Jul-17 03:32N 50°19' W 002°13'1111.7
2014-Jul-17 02:33N 50°21' W 001°55'1110.0
2014-Jul-17 01:30N 50°23' W 001°39'8 8.4
2014-Jul-17 00:31N 50°25' W 001°26'7 7.2
2014-Jul-16 23:34N 50°26' W 001°16'7 6.5
2014-Jul-16 22:33N 50°27' W 001°06'7 6.9
2014-Jul-16 21:33N 50°28' W 000°55'9 8.7
2014-Jul-16 20:31N 50°29' W 000°41'2411.6
2014-Jul-16 18:29N 50°33' W 000°04'1111.9
2014-Jul-16 17:33N 50°35' E 000°13'1211.7
2014-Jul-16 16:33N 50°38' E 000°31'1110.7
2014-Jul-16 15:33N 50°44' E 000°45'10 9.5
2014-Jul-16 14:33N 50°49' E 000°58'9 8.9
2014-Jul-16 13:33N 50°55' E 001°09'10 9.5
2014-Jul-16 12:30N 51°01' E 001°21'1212.4
2014-Jul-16 11:34N 51°09' E 001°35'1413.6
2014-Jul-16 10:33N 51°18' E 001°51'1110.3
2014-Jul-16 09:30N 51°23' E 002°06'1011.0
2014-Jul-16 08:33N 51°22' E 002°23'1211.4
2014-Jul-16 07:33N 51°23' E 002°41'1010.5
2014-Jul-16 06:33N 51°22' E 002°58'1010.3
2014-Jul-16 05:33N 51°23' E 003°14'1010.1
2014-Jul-16 04:33N 51°25' E 003°30'9 8.6
2014-Jul-16 03:33N 51°23' E 003°43'5 5.0
2014-Jul-16 02:33N 51°20' E 003°49'3 3.2
2014-Jul-16 01:28N 51°16' E 003°51'0 0.0
2014-Jul-16 00:32N 51°16' E 003°51'0 0.0
2014-Jul-15 23:30N 51°16' E 003°51'0 0.0
2014-Jul-15 22:18N 51°16' E 003°51'0 0.0
2014-Jul-15 21:24N 51°16' E 003°51'0 0.0
2014-Jul-15 20:30N 51°16' E 003°51'0 0.0
2014-Jul-15 19:18N 51°16' E 003°51'0 0.0
2014-Jul-15 18:33N 51°16' E 003°51'0 0.0
2014-Jul-15 17:27N 51°16' E 003°51'0 0.0
2014-Jul-15 16:24N 51°16' E 003°51'0 0.0
2014-Jul-15 15:28N 51°16' E 003°51'0 0.0
2014-Jul-15 14:31N 51°16' E 003°51'0 0.0
2014-Jul-15 13:25N 51°16' E 003°51'0 0.0
2014-Jul-15 12:31N 51°16' E 003°51'0 0.0
2014-Jul-15 11:31N 51°16' E 003°51'0 0.0
2014-Jul-15 10:31N 51°16' E 003°51'3 2.7
2014-Jul-15 09:34N 51°19' E 003°50'0 0.4
2014-Jul-15 08:32N 51°19' E 003°49'0 0.0
2014-Jul-15 07:32N 51°19' E 003°49'0 0.0
2014-Jul-15 06:32N 51°19' E 003°49'0 0.0
2014-Jul-15 05:32N 51°19' E 003°49'0 0.0
2014-Jul-15 04:32N 51°19' E 003°49'0 0.0
2014-Jul-15 03:29N 51°19' E 003°49'0 0.0
2014-Jul-15 02:29N 51°19' E 003°49'0 0.0
2014-Jul-15 01:32N 51°19' E 003°49'0 0.0
2014-Jul-15 00:32N 51°19' E 003°49'0 0.0
2014-Jul-14 23:32N 51°19' E 003°49'0 0.0
2014-Jul-14 22:32N 51°19' E 003°49'0 0.0
2014-Jul-14 21:32N 51°19' E 003°49'0 0.0
2014-Jul-14 20:29N 51°19' E 003°49'0 0.0
2014-Jul-14 19:32N 51°19' E 003°49'0 0.0
2014-Jul-14 18:32N 51°19' E 003°49'  

Dump ship's entire track history